Time;durP1;ratioP1;P1;durP2;ratioP2;P2;SDS_P1;SDS_P2;PMS_P1;PMS_P2;Temp;Humidity;BMP_temperature;BMP_pressure;BME280_temperature;BME280_humidity;BME280_pressure;Samples;Min_cycle;Max_cycle;Signal;HPM_P1;HPM_P2
2022/09/11 00:01:34;;;;;;;90.30;49.50;;;15.40;99.90;;;;;;5074723;28;20831;-76
2022/09/11 00:04:01;;;;;;;67.57;45.30;;;15.40;99.90;;;;;;5074726;28;20473;-76
2022/09/11 00:06:28;;;;;;;75.03;46.50;;;15.40;99.90;;;;;;5074679;28;20452;-75
2022/09/11 00:08:59;;;;;;;67.90;43.83;;;15.40;99.90;;;;;;5074249;28;20931;-76
2022/09/11 00:11:27;;;;;;;74.50;45.90;;;15.50;99.90;;;;;;5074633;28;20453;-75
2022/09/11 00:13:55;;;;;;;80.17;47.50;;;15.50;99.90;;;;;;5074465;28;20856;-75
2022/09/11 00:16:25;;;;;;;61.70;41.93;;;15.50;99.90;;;;;;5074461;28;20457;-75
2022/09/11 00:18:55;;;;;;;76.93;45.37;;;15.50;99.90;;;;;;5074558;28;20516;-75
2022/09/11 00:21:22;;;;;;;68.23;40.30;;;15.50;99.90;;;;;;5074342;28;20488;-75
2022/09/11 00:23:49;;;;;;;61.87;40.40;;;15.50;99.90;;;;;;5074271;28;20469;-75
2022/09/11 00:26:16;;;;;;;69.00;42.00;;;15.50;99.90;;;;;;5074255;28;20445;-75
2022/09/11 00:28:44;;;;;;;57.40;38.67;;;15.40;99.90;;;;;;5075058;28;20838;-76
2022/09/11 00:31:12;;;;;;;55.80;39.07;;;15.40;99.90;;;;;;5074799;28;20943;-76
2022/09/11 00:33:40;;;;;;;54.53;34.50;;;15.40;99.90;;;;;;5075108;28;20476;-76
2022/09/11 00:36:12;;;;;;;51.00;35.93;;;15.30;99.90;;;;;;5075861;28;20455;-76
2022/09/11 00:38:39;;;;;;;55.30;34.00;;;15.30;99.90;;;;;;5075617;28;20483;-76
2022/09/11 00:41:08;;;;;;;49.70;32.20;;;15.40;99.90;;;;;;5075347;28;20485;-76
2022/09/11 00:44:01;;;;;;;45.10;29.23;;;15.40;99.90;;;;;;5075290;28;20978;-76
2022/09/11 00:46:36;;;;;;;32.73;22.03;;;15.40;99.90;;;;;;5075212;28;20437;-76
2022/09/11 00:49:09;;;;;;;36.50;21.93;;;15.50;99.90;;;;;;5073869;28;20429;-75
2022/09/11 00:51:39;;;;;;;25.57;18.30;;;15.60;99.90;;;;;;5073858;28;20425;-75
2022/09/11 00:54:09;;;;;;;28.20;19.77;;;15.50;99.90;;;;;;5073463;28;20468;-75
2022/09/11 00:56:37;;;;;;;27.50;20.30;;;15.50;99.90;;;;;;5074354;28;20831;-75
2022/09/11 00:59:05;;;;;;;31.50;23.17;;;15.50;99.90;;;;;;5073639;28;20510;-76
2022/09/11 01:01:32;;;;;;;35.93;24.80;;;15.50;99.90;;;;;;5073408;28;20534;-75
2022/09/11 01:04:02;;;;;;;38.97;27.43;;;15.50;99.90;;;;;;5073531;28;20472;-75
2022/09/11 01:06:29;;;;;;;44.40;29.70;;;15.40;99.90;;;;;;5073536;28;20846;-75
2022/09/11 01:08:58;;;;;;;52.20;34.93;;;15.40;99.90;;;;;;5073396;28;20475;-75
2022/09/11 01:11:37;;;;;;;47.80;35.13;;;15.60;99.90;;;;;;5072864;28;20441;-75
2022/09/11 01:14:14;;;;;;;47.47;34.27;;;15.60;99.90;;;;;;5073499;28;20472;-76
2022/09/11 01:16:48;;;;;;;51.90;33.20;;;15.60;99.90;;;;;;5073253;28;20440;-76
2022/09/11 01:19:30;;;;;;;55.43;35.40;;;15.50;99.90;;;;;;5073598;28;20493;-76
2022/09/11 01:22:17;;;;;;;52.20;34.57;;;15.50;99.90;;;;;;5073235;28;20469;-76
2022/09/11 01:25:09;;;;;;;51.23;33.87;;;15.50;99.90;;;;;;5073325;28;20503;-75
2022/09/11 01:27:51;;;;;;;43.70;31.57;;;15.40;99.90;;;;;;5073366;28;20444;-75
2022/09/11 01:30:21;;;;;;;41.90;29.80;;;15.40;99.90;;;;;;5074301;28;20425;-75
2022/09/11 01:33:12;;;;;;;32.03;24.73;;;15.50;99.90;;;;;;5074265;28;20445;-75
2022/09/11 01:35:55;;;;;;;38.83;25.57;;;15.50;99.90;;;;;;5073966;28;20981;-75
2022/09/11 01:38:27;;;;;;;34.23;24.27;;;15.50;99.90;;;;;;5073742;28;20429;-75
2022/09/11 01:40:57;;;;;;;29.90;22.43;;;15.50;99.90;;;;;;5073145;28;20452;-75
2022/09/11 01:43:29;;;;;;;33.13;23.30;;;15.40;99.90;;;;;;5096833;22;20487;-77
2022/09/11 01:45:58;;;;;;;26.27;19.50;;;15.40;99.90;;;;;;5073216;28;20445;-78
2022/09/11 01:48:30;;;;;;;23.13;18.97;;;15.30;99.90;;;;;;5073512;28;20441;-77
2022/09/11 01:50:59;;;;;;;17.43;13.97;;;15.30;99.90;;;;;;5073378;28;20443;-78
2022/09/11 01:53:33;;;;;;;16.67;13.33;;;15.20;99.90;;;;;;5073375;28;20441;-78
2022/09/11 01:56:05;;;;;;;16.20;13.60;;;15.30;99.90;;;;;;5073371;28;20487;-77
2022/09/11 01:58:35;;;;;;;23.87;14.30;;;15.40;99.90;;;;;;5074105;28;20430;-77
2022/09/11 02:01:06;;;;;;;13.60;12.13;;;15.30;99.90;;;;;;5073179;28;20435;-78
2022/09/11 02:03:37;;;;;;;15.50;12.10;;;15.40;99.90;;;;;;5073102;28;20425;-78
2022/09/11 02:06:07;;;;;;;13.53;12.00;;;15.20;99.90;;;;;;5074319;28;20428;-78
2022/09/11 02:08:42;;;;;;;12.20;10.90;;;15.20;99.90;;;;;;5073489;28;20456;-78
2022/09/11 02:11:12;;;;;;;12.40;10.27;;;15.30;99.90;;;;;;5073310;28;20437;-77
2022/09/11 02:13:50;;;;;;;11.63;9.50;;;15.20;99.90;;;;;;5073345;28;20462;-77
2022/09/11 02:16:25;;;;;;;15.63;10.97;;;15.30;99.90;;;;;;5073791;28;20861;-77
2022/09/11 02:18:58;;;;;;;12.07;10.10;;;15.10;99.90;;;;;;5077353;28;20440;-77
2022/09/11 02:21:26;;;;;;;12.40;9.57;;;15.10;99.90;;;;;;5073958;28;20433;-78
2022/09/11 02:23:54;;;;;;;12.80;11.20;;;15.10;99.90;;;;;;5076734;28;20962;-77
2022/09/11 02:26:25;;;;;;;18.33;11.33;;;15.00;99.90;;;;;;5076719;28;20487;-78
2022/09/11 02:28:54;;;;;;;13.50;10.70;;;15.00;99.90;;;;;;5076751;28;20436;-77
2022/09/11 02:31:22;;;;;;;11.53;10.33;;;15.00;99.90;;;;;;5076719;28;20562;-77
2022/09/11 02:33:52;;;;;;;11.77;10.57;;;15.00;99.90;;;;;;5076200;28;20526;-77
2022/09/11 02:36:37;;;;;;;10.93;9.83;;;14.90;99.90;;;;;;5076567;28;20451;-78
2022/09/11 02:39:17;;;;;;;11.80;10.43;;;14.90;99.90;;;;;;5076847;28;20866;-77
2022/09/11 02:41:57;;;;;;;11.40;10.40;;;15.00;99.90;;;;;;5076442;28;20463;-77
2022/09/11 02:44:36;;;;;;;13.67;10.43;;;14.70;99.90;;;;;;5076211;28;20476;-77
2022/09/11 02:47:16;;;;;;;12.53;11.30;;;14.70;99.90;;;;;;5076969;28;20878;-77
2022/09/11 02:49:57;;;;;;;12.67;10.10;;;14.70;99.90;;;;;;5076363;28;20425;-77
2022/09/11 02:52:37;;;;;;;15.10;9.63;;;14.70;99.90;;;;;;5075997;28;20421;-77
2022/09/11 02:55:11;;;;;;;14.13;10.87;;;14.70;99.90;;;;;;5076032;28;20491;-77
2022/09/11 02:57:42;;;;;;;12.27;9.90;;;14.70;99.90;;;;;;5076121;28;20428;-77
2022/09/11 03:00:13;;;;;;;11.60;10.20;;;15.20;99.90;;;;;;5076114;28;20532;-77
2022/09/11 03:02:42;;;;;;;11.53;10.33;;;14.60;99.90;;;;;;5076099;28;20472;-77
2022/09/11 03:05:10;;;;;;;12.93;10.43;;;14.70;99.90;;;;;;5076082;28;20464;-77
2022/09/11 03:07:37;;;;;;;11.67;10.57;;;14.70;99.90;;;;;;5075962;28;20514;-77
2022/09/11 03:10:04;;;;;;;13.63;10.60;;;14.70;99.90;;;;;;5075974;28;20825;-78
2022/09/11 03:12:31;;;;;;;13.33;11.87;;;14.70;99.90;;;;;;5075871;28;20444;-77
2022/09/11 03:14:57;;;;;;;13.50;11.93;;;14.50;99.90;;;;;;5075737;28;20468;-77
2022/09/11 03:18:02;;;;;;;12.50;10.27;;;14.60;99.90;;;;;;5078461;28;20834;-78
2022/09/11 03:20:30;;;;;;;16.53;11.67;;;14.40;99.90;;;;;;5076585;28;20494;-77
2022/09/11 03:22:57;;;;;;;16.57;11.43;;;16.50;99.90;;;;;;5075966;28;20480;-78
2022/09/11 03:25:27;;;;;;;15.70;11.37;;;14.40;99.90;;;;;;5076268;28;20469;-77
2022/09/11 03:27:53;;;;;;;13.63;11.00;;;14.30;99.90;;;;;;5075898;28;20448;-77
2022/09/11 03:30:20;;;;;;;13.27;11.37;;;14.40;99.90;;;;;;5075851;28;20502;-78
2022/09/11 03:32:48;;;;;;;15.40;12.20;;;14.30;99.90;;;;;;5075196;28;20441;-77
2022/09/11 03:35:17;;;;;;;13.33;11.93;;;14.30;99.90;;;;;;5075735;28;20465;-77
2022/09/11 03:37:45;;;;;;;15.97;12.13;;;14.30;99.90;;;;;;5075490;28;20445;-77
2022/09/11 03:40:13;;;;;;;14.47;11.50;;;14.20;99.90;;;;;;5075510;28;20456;-77
2022/09/11 03:42:40;;;;;;;13.73;12.33;;;14.30;99.90;;;;;;5075783;28;21029;-77
2022/09/11 03:45:07;;;;;;;16.27;13.23;;;14.30;99.90;;;;;;5076117;28;21059;-78
2022/09/11 03:47:35;;;;;;;14.23;12.03;;;14.70;99.90;;;;;;5075105;28;21016;-77
2022/09/11 03:50:04;;;;;;;13.70;12.40;;;14.40;99.90;;;;;;5075139;28;20480;-77
2022/09/11 03:52:31;;;;;;;18.33;12.53;;;14.20;99.90;;;;;;5075194;28;20940;-77
2022/09/11 03:54:57;;;;;;;14.47;12.80;;;14.30;99.90;;;;;;5076142;28;20542;-78
2022/09/11 03:57:25;;;;;;;16.40;13.30;;;14.40;99.90;;;;;;5075042;28;20449;-78
2022/09/11 03:59:53;;;;;;;16.20;13.50;;;14.40;99.90;;;;;;5074729;28;21290;-77
2022/09/11 04:02:22;;;;;;;17.80;12.53;;;14.50;99.90;;;;;;5075444;28;20571;-77
2022/09/11 04:04:48;;;;;;;13.03;11.60;;;14.40;99.90;;;;;;5074710;28;20476;-77
2022/09/11 04:07:16;;;;;;;14.80;12.37;;;14.30;99.90;;;;;;5076215;28;20514;-77
2022/09/11 04:09:43;;;;;;;14.00;12.50;;;14.20;99.90;;;;;;5076112;28;20876;-78
2022/09/11 04:12:10;;;;;;;15.47;12.83;;;14.40;99.90;;;;;;5076156;28;20487;-77
2022/09/11 04:14:36;;;;;;;19.13;13.50;;;14.10;99.90;;;;;;5076876;28;20460;-77
2022/09/11 04:17:03;;;;;;;15.07;13.27;;;14.10;99.90;;;;;;5074883;28;20530;-77
2022/09/11 04:19:30;;;;;;;19.37;14.40;;;14.10;99.90;;;;;;5074568;28;20539;-77
2022/09/11 04:21:57;;;;;;;17.43;13.50;;;14.20;99.90;;;;;;5074402;28;20517;-77
2022/09/11 04:24:28;;;;;;;18.17;14.57;;;14.10;99.90;;;;;;5074522;28;20556;-78
2022/09/11 04:26:54;;;;;;;16.93;14.10;;;14.00;99.90;;;;;;5074506;28;20516;-77
2022/09/11 04:29:23;;;;;;;18.10;13.30;;;13.90;99.90;;;;;;5078228;28;20444;-78
2022/09/11 04:31:50;;;;;;;16.07;12.70;;;14.00;99.90;;;;;;5081724;28;20445;-77
2022/09/11 04:34:19;;;;;;;16.03;12.43;;;13.80;99.90;;;;;;5076504;28;20494;-78
2022/09/11 04:36:46;;;;;;;16.33;14.20;;;13.90;99.90;;;;;;5079541;28;20796;-78
2022/09/11 04:39:12;;;;;;;18.87;14.87;;;13.90;99.90;;;;;;5079159;28;20444;-77
2022/09/11 04:41:40;;;;;;;17.90;13.20;;;13.90;99.90;;;;;;5077806;28;20437;-78
2022/09/11 04:44:07;;;;;;;18.40;14.20;;;13.90;99.90;;;;;;5073806;28;20496;-77
2022/09/11 04:46:34;;;;;;;22.60;15.07;;;13.80;99.90;;;;;;5073942;28;20449;-77
2022/09/11 04:49:01;;;;;;;20.57;14.40;;;13.80;99.90;;;;;;5074184;28;20553;-77
2022/09/11 04:51:30;;;;;;;22.00;14.50;;;13.80;99.90;;;;;;5074153;28;20456;-77
2022/09/11 04:53:59;;;;;;;24.90;17.83;;;13.90;99.90;;;;;;5075901;28;20464;-77
2022/09/11 04:56:27;;;;;;;23.00;17.07;;;14.10;99.90;;;;;;5077669;28;20490;-76
2022/09/11 04:58:57;;;;;;;24.80;15.80;;;14.10;99.90;;;;;;5073911;28;20456;-77
2022/09/11 05:01:25;;;;;;;33.27;17.63;;;14.00;99.90;;;;;;5073846;28;20444;-77
2022/09/11 05:03:55;;;;;;;20.73;14.03;;;14.10;99.90;;;;;;5073616;28;20492;-77
2022/09/11 05:06:21;;;;;;;25.20;16.80;;;14.20;99.90;;;;;;5073797;28;20449;-77
2022/09/11 05:08:49;;;;;;;22.07;14.97;;;14.20;99.90;;;;;;5073539;28;20453;-77
2022/09/11 05:11:17;;;;;;;20.40;13.87;;;14.20;99.90;;;;;;5073686;28;20868;-77
2022/09/11 05:13:44;;;;;;;30.67;18.30;;;14.10;99.90;;;;;;5073602;28;20469;-77
2022/09/11 05:16:15;;;;;;;29.03;15.83;;;14.20;99.90;;;;;;5073369;28;20453;-78
2022/09/11 05:18:44;;;;;;;25.57;16.60;;;14.30;99.90;;;;;;5073970;28;20845;-77
2022/09/11 05:21:12;;;;;;;27.00;19.23;;;14.20;99.90;;;;;;5074281;28;20441;-77
2022/09/11 05:23:40;;;;;;;35.37;22.87;;;14.30;99.90;;;;;;5073267;28;20484;-77
2022/09/11 05:26:14;;;;;;;28.20;19.20;;;14.30;99.90;;;;;;5073718;28;20503;-77
2022/09/11 05:28:40;;;;;;;30.47;20.17;;;14.40;99.90;;;;;;5073503;28;20396;-77
2022/09/11 05:31:14;;;;;;;39.37;27.40;;;14.40;99.90;;;;;;5073456;28;20448;-77
2022/09/11 05:33:44;;;;;;;32.67;20.80;;;14.50;99.90;;;;;;5073393;28;20468;-77
2022/09/11 05:36:12;;;;;;;31.80;21.43;;;14.50;99.90;;;;;;5073482;28;20857;-78
2022/09/11 05:38:40;;;;;;;33.63;20.60;;;14.40;99.90;;;;;;5073418;28;20452;-78
2022/09/11 05:41:09;;;;;;;33.00;21.97;;;14.50;99.90;;;;;;5073391;28;20451;-77
2022/09/11 05:43:36;;;;;;;29.13;18.60;;;14.80;99.90;;;;;;5072971;28;20533;-77
2022/09/11 05:46:03;;;;;;;40.00;24.17;;;14.50;99.90;;;;;;5073119;28;20464;-77
2022/09/11 05:48:33;;;;;;;30.93;21.10;;;14.60;99.90;;;;;;5075262;28;20440;-78
2022/09/11 05:51:01;;;;;;;26.03;18.10;;;14.60;99.90;;;;;;5075778;28;20441;-77
2022/09/11 05:53:30;;;;;;;29.60;19.70;;;14.80;99.90;;;;;;5073136;28;20511;-77
2022/09/11 05:55:59;;;;;;;27.43;17.50;;;14.50;99.90;;;;;;5073410;28;20448;-77
2022/09/11 05:58:31;;;;;;;38.30;24.70;;;14.50;99.90;;;;;;5077457;28;20535;-78
2022/09/11 06:01:04;;;;;;;33.47;21.63;;;14.60;99.90;;;;;;5077366;28;20907;-77
2022/09/11 06:03:32;;;;;;;31.60;19.90;;;14.50;99.90;;;;;;5077338;28;20491;-77
2022/09/11 06:06:02;;;;;;;54.60;33.50;;;14.70;99.90;;;;;;5076736;28;20483;-78
2022/09/11 06:08:29;;;;;;;27.73;19.43;;;14.80;99.90;;;;;;5076789;28;21003;-77
2022/09/11 06:10:57;;;;;;;39.37;21.27;;;14.80;99.90;;;;;;5077046;28;20445;-77
2022/09/11 06:13:26;;;;;;;31.43;19.63;;;14.60;99.90;;;;;;5076902;28;20528;-78
2022/09/11 06:15:52;;;;;;;29.77;20.20;;;14.70;99.90;;;;;;5077065;28;20975;-77
2022/09/11 06:18:19;;;;;;;37.03;23.47;;;14.70;99.90;;;;;;5077264;28;20474;-77
2022/09/11 06:20:57;;;;;;;32.53;18.93;;;14.80;99.90;;;;;;5076990;28;20457;-77
2022/09/11 06:23:23;;;;;;;27.30;18.40;;;15.10;99.90;;;;;;5076796;28;20476;-78
2022/09/11 06:25:53;;;;;;;32.33;19.70;;;15.00;99.90;;;;;;5077196;28;20883;-78
2022/09/11 06:28:21;;;;;;;27.57;19.10;;;15.00;99.90;;;;;;5076651;28;20535;-77
2022/09/11 06:30:48;;;;;;;27.80;18.80;;;15.00;99.90;;;;;;5076475;28;20449;-77
2022/09/11 06:33:15;;;;;;;34.23;21.00;;;15.00;99.90;;;;;;5076997;28;20447;-77
2022/09/11 06:35:42;;;;;;;26.80;18.50;;;15.20;99.90;;;;;;5076211;28;20476;-78
2022/09/11 06:38:10;;;;;;;40.70;23.70;;;15.20;99.90;;;;;;5076438;28;20439;-77
2022/09/11 06:40:37;;;;;;;32.13;21.47;;;15.40;99.90;;;;;;5076251;28;20449;-77
2022/09/11 06:43:03;;;;;;;28.13;18.33;;;15.40;99.90;;;;;;5076083;28;20491;-77
2022/09/11 06:45:32;;;;;;;33.13;21.90;;;15.40;99.90;;;;;;5075846;28;20899;-77
2022/09/11 06:47:59;;;;;;;27.23;20.20;;;15.50;99.90;;;;;;5076278;28;20480;-78
2022/09/11 06:50:26;;;;;;;35.87;26.33;;;15.50;99.90;;;;;;5075978;28;20452;-77
2022/09/11 06:52:53;;;;;;;30.53;19.10;;;15.50;99.90;;;;;;5076112;28;20506;-77
2022/09/11 06:55:21;;;;;;;26.90;19.57;;;15.50;99.90;;;;;;5075667;28;21017;-77
2022/09/11 06:57:48;;;;;;;26.00;18.87;;;15.60;99.90;;;;;;5075751;28;20896;-77
2022/09/11 07:00:15;;;;;;;28.93;19.80;;;15.60;99.90;;;;;;5076124;28;20448;-77
2022/09/11 07:02:42;;;;;;;31.63;21.13;;;15.60;99.90;;;;;;5076240;28;20495;-77
2022/09/11 07:05:09;;;;;;;33.10;22.50;;;15.60;99.90;;;;;;5076302;28;20465;-78
2022/09/11 07:07:38;;;;;;;36.60;23.80;;;15.70;99.90;;;;;;5074965;28;20537;-77
2022/09/11 07:10:06;;;;;;;31.47;21.43;;;15.70;99.90;;;;;;5075917;28;20853;-78
2022/09/11 07:12:34;;;;;;;23.10;16.73;;;15.70;99.90;;;;;;5075982;28;20452;-78
2022/09/11 07:15:01;;;;;;;24.50;17.07;;;15.70;99.90;;;;;;5075773;28;20883;-77
2022/09/11 07:17:27;;;;;;;22.87;18.00;;;15.50;99.90;;;;;;5077247;28;20502;-77
2022/09/11 07:19:54;;;;;;;32.37;21.83;;;15.60;99.90;;;;;;5076400;28;20448;-77
2022/09/11 07:22:21;;;;;;;21.80;17.13;;;15.60;99.90;;;;;;5075990;28;20444;-77
2022/09/11 07:24:47;;;;;;;23.23;16.03;;;15.70;99.90;;;;;;5076179;28;20484;-77
2022/09/11 07:27:18;;;;;;;23.03;16.70;;;15.70;99.90;;;;;;5075666;28;20459;-78
2022/09/11 07:29:46;;;;;;;25.17;17.30;;;15.70;99.90;;;;;;5076317;28;20418;-78
2022/09/11 07:32:13;;;;;;;23.70;15.77;;;15.70;99.90;;;;;;5080338;28;20444;-77
2022/09/11 07:34:39;;;;;;;25.03;16.60;;;15.70;99.90;;;;;;5077333;28;21038;-78
2022/09/11 07:37:06;;;;;;;23.60;16.50;;;15.70;99.90;;;;;;5077678;28;20440;-78
2022/09/11 07:39:33;;;;;;;18.57;14.80;;;15.80;99.90;;;;;;5075885;28;20492;-77
2022/09/11 07:42:00;;;;;;;21.40;15.50;;;15.90;99.90;;;;;;5075196;28;20475;-78
2022/09/11 07:44:26;;;;;;;22.90;15.30;;;15.90;99.90;;;;;;5096524;22;20501;-76
2022/09/11 07:46:54;;;;;;;18.30;13.10;;;16.00;99.90;;;;;;5074989;28;20444;-76
2022/09/11 07:49:21;;;;;;;19.47;14.27;;;16.10;99.90;;;;;;5074686;28;21006;-75
2022/09/11 07:51:47;;;;;;;20.00;15.43;;;16.10;99.90;;;;;;5074881;28;20853;-76
2022/09/11 07:54:14;;;;;;;20.40;14.37;;;16.10;99.90;;;;;;5074655;28;20502;-75
2022/09/11 07:56:41;;;;;;;19.27;15.60;;;16.10;99.90;;;;;;5074859;28;20453;-75
2022/09/11 07:59:08;;;;;;;19.33;16.20;;;16.20;99.90;;;;;;5074807;28;20795;-76
2022/09/11 08:01:35;;;;;;;23.13;16.87;;;16.30;99.90;;;;;;5074720;28;20440;-75
2022/09/11 08:04:05;;;;;;;20.23;13.70;;;16.40;99.90;;;;;;5074611;28;20534;-75
2022/09/11 08:06:34;;;;;;;16.93;13.00;;;16.50;99.90;;;;;;5074515;28;20486;-75
2022/09/11 08:09:03;;;;;;;18.67;13.97;;;16.50;99.90;;;;;;5074435;28;20598;-75
2022/09/11 08:11:33;;;;;;;21.03;12.30;;;16.60;99.90;;;;;;5074572;28;20447;-75
2022/09/11 08:14:00;;;;;;;19.30;14.90;;;16.50;99.90;;;;;;5074273;28;20926;-76
2022/09/11 08:16:27;;;;;;;20.20;14.77;;;16.60;99.90;;;;;;5074398;28;20547;-76
2022/09/11 08:18:54;;;;;;;18.63;15.50;;;16.50;99.90;;;;;;5074162;28;20441;-75
2022/09/11 08:21:25;;;;;;;21.70;14.53;;;16.60;99.90;;;;;;5073983;28;20939;-75
2022/09/11 08:23:51;;;;;;;21.80;15.83;;;16.60;99.90;;;;;;5074426;28;20488;-75
2022/09/11 08:26:20;;;;;;;18.97;13.07;;;16.80;99.90;;;;;;5074390;28;20819;-75
2022/09/11 08:28:49;;;;;;;17.37;14.20;;;16.80;99.90;;;;;;5074285;28;20857;-75
2022/09/11 08:31:17;;;;;;;20.50;15.60;;;16.80;99.90;;;;;;5074210;28;20502;-75
2022/09/11 08:33:44;;;;;;;15.63;13.33;;;16.90;99.90;;;;;;5073686;28;20475;-74
2022/09/11 08:36:12;;;;;;;16.87;13.60;;;17.00;99.90;;;;;;5074184;28;20448;-75
2022/09/11 08:38:42;;;;;;;19.33;14.30;;;17.00;99.90;;;;;;5073720;28;20448;-76
2022/09/11 08:41:20;;;;;;;22.20;15.10;;;16.90;99.90;;;;;;5075372;28;20510;-75
2022/09/11 08:43:50;;;;;;;17.30;14.30;;;16.70;99.90;;;;;;5073822;28;20469;-75
2022/09/11 08:46:20;;;;;;;17.13;13.40;;;17.00;99.90;;;;;;5073758;28;20935;-75
2022/09/11 08:48:54;;;;;;;14.40;12.27;;;17.00;99.90;;;;;;5073740;28;20441;-75
2022/09/11 08:51:21;;;;;;;18.30;13.40;;;17.00;99.90;;;;;;5073821;28;20433;-75
2022/09/11 08:53:50;;;;;;;15.90;12.97;;;17.20;99.90;;;;;;5073712;28;20858;-75
2022/09/11 08:56:21;;;;;;;16.13;13.30;;;16.90;99.90;;;;;;5073819;28;20480;-76
2022/09/11 08:59:05;;;;;;;16.97;14.30;;;16.90;99.90;;;;;;5074321;28;20429;-76
2022/09/11 09:01:38;;;;;;;16.00;12.80;;;17.00;99.90;;;;;;5073729;28;20436;-76
2022/09/11 09:04:27;;;;;;;19.10;13.13;;;17.00;99.90;;;;;;5074159;28;20488;-76
2022/09/11 09:07:02;;;;;;;17.93;13.37;;;17.00;99.90;;;;;;5073769;28;20440;-75
2022/09/11 09:09:41;;;;;;;14.93;11.77;;;17.10;99.90;;;;;;5073578;28;20907;-75
2022/09/11 09:12:16;;;;;;;18.10;12.47;;;17.10;99.90;;;;;;5073592;28;20439;-76
2022/09/11 09:15:06;;;;;;;18.43;13.40;;;17.30;99.90;;;;;;5074098;28;20468;-75
2022/09/11 09:17:38;;;;;;;18.73;13.33;;;17.30;99.90;;;;;;5073720;28;20429;-75
2022/09/11 09:20:11;;;;;;;15.63;12.13;;;17.40;99.90;;;;;;5073733;28;20424;-75
2022/09/11 09:22:44;;;;;;;13.40;11.90;;;17.40;99.90;;;;;;5073571;28;20499;-76
2022/09/11 09:25:16;;;;;;;14.30;11.20;;;17.40;99.90;;;;;;5073975;28;20852;-75
2022/09/11 09:27:46;;;;;;;15.17;11.23;;;17.40;99.90;;;;;;5074442;28;20430;-75
2022/09/11 09:30:16;;;;;;;15.47;11.83;;;17.50;99.90;;;;;;5073517;28;20494;-74
2022/09/11 09:32:49;;;;;;;12.43;10.87;;;17.50;99.90;;;;;;5073044;28;20939;-75
2022/09/11 09:35:21;;;;;;;17.07;11.47;;;17.60;99.90;;;;;;5072793;28;20463;-75
2022/09/11 09:37:47;;;;;;;11.20;10.10;;;17.60;99.90;;;;;;5072955;28;20433;-74
2022/09/11 09:40:17;;;;;;;14.20;10.60;;;17.60;99.90;;;;;;5072730;28;20453;-75
2022/09/11 09:43:00;;;;;;;11.20;10.00;;;17.60;99.90;;;;;;5072847;28;20449;-74
2022/09/11 09:45:40;;;;;;;12.60;9.90;;;17.70;99.90;;;;;;5072636;28;20488;-75
2022/09/11 09:48:10;;;;;;;13.47;11.20;;;17.70;99.90;;;;;;5073544;28;20486;-74
2022/09/11 09:50:40;;;;;;;10.70;8.80;;;17.70;99.90;;;;;;5074337;28;20441;-75
2022/09/11 09:53:15;;;;;;;13.20;9.73;;;17.70;99.90;;;;;;5072895;28;20448;-75
2022/09/11 09:55:46;;;;;;;14.53;12.13;;;17.60;99.90;;;;;;5073086;28;20460;-74
2022/09/11 09:58:13;;;;;;;16.43;12.27;;;17.60;99.90;;;;;;5073266;28;20524;-74
2022/09/11 10:00:40;;;;;;;16.80;13.27;;;17.50;99.90;;;;;;5072904;28;20785;-75
2022/09/11 10:03:19;;;;;;;18.17;12.87;;;17.50;99.90;;;;;;5072952;28;20502;-75
2022/09/11 10:05:47;;;;;;;14.00;11.43;;;17.40;99.90;;;;;;5072566;28;20902;-74
2022/09/11 10:08:28;;;;;;;15.80;11.93;;;17.50;99.90;;;;;;5072837;28;20444;-75
2022/09/11 10:10:58;;;;;;;13.87;12.13;;;17.60;99.90;;;;;;5072976;28;20439;-76
2022/09/11 10:13:27;;;;;;;14.50;11.13;;;17.80;99.90;;;;;;5072722;28;20457;-76
2022/09/11 10:15:58;;;;;;;15.63;12.23;;;17.90;99.90;;;;;;5072587;28;20554;-75
2022/09/11 10:18:50;;;;;;;15.63;11.00;;;17.90;99.90;;;;;;5072781;28;20487;-75
2022/09/11 10:21:28;;;;;;;14.20;12.30;;;18.00;99.90;;;;;;5072385;28;20429;-75
2022/09/11 10:23:56;;;;;;;15.20;12.00;;;17.40;99.90;;;;;;5072436;28;20504;-75
2022/09/11 10:26:28;;;;;;;13.00;11.47;;;17.60;99.90;;;;;;5072291;28;20449;-75
2022/09/11 10:28:59;;;;;;;15.20;11.97;;;17.40;99.90;;;;;;5072735;28;20424;-75
2022/09/11 10:31:25;;;;;;;16.63;13.80;;;17.20;99.90;;;;;;5071823;28;20455;-75
2022/09/11 10:33:55;;;;;;;21.10;13.23;;;16.60;99.90;;;;;;5072278;28;20502;-76
2022/09/11 10:36:24;;;;;;;17.63;14.50;;;16.50;99.90;;;;;;5072309;28;20535;-75
2022/09/11 10:38:51;;;;;;;20.00;15.13;;;16.30;99.90;;;;;;5072264;28;20774;-75
2022/09/11 10:41:21;;;;;;;23.73;16.53;;;16.20;99.90;;;;;;5072062;28;20444;-75
2022/09/11 10:43:54;;;;;;;25.20;17.03;;;16.40;99.90;;;;;;5075282;28;20849;-76
2022/09/11 10:46:24;;;;;;;21.70;16.30;;;16.20;99.90;;;;;;5076700;28;20460;-75
2022/09/11 10:48:54;;;;;;;22.53;16.97;;;16.40;99.90;;;;;;5075835;28;20448;-76
2022/09/11 10:51:21;;;;;;;18.83;14.97;;;16.40;99.90;;;;;;5075691;28;20436;-76
2022/09/11 10:53:59;;;;;;;18.60;15.10;;;16.60;99.90;;;;;;5075791;28;20452;-76
2022/09/11 10:56:27;;;;;;;20.03;16.70;;;16.70;99.90;;;;;;5076008;28;20519;-76
2022/09/11 10:59:00;;;;;;;24.83;17.60;;;16.80;99.90;;;;;;5075920;28;20480;-75
2022/09/11 11:01:26;;;;;;;19.53;16.13;;;16.90;99.90;;;;;;5075906;28;20487;-75
2022/09/11 11:03:55;;;;;;;18.30;14.60;;;17.20;99.90;;;;;;5075629;28;20811;-75
2022/09/11 11:06:37;;;;;;;18.37;13.13;;;17.20;99.90;;;;;;5075293;28;20449;-75
2022/09/11 11:09:27;;;;;;;12.10;10.90;;;17.30;99.90;;;;;;5075806;28;20819;-76
2022/09/11 11:12:06;;;;;;;11.00;9.80;;;17.30;99.90;;;;;;5075759;28;20421;-75
2022/09/11 11:14:53;;;;;;;15.63;10.30;;;17.20;99.90;;;;;;5076050;28;20471;-75
2022/09/11 11:17:30;;;;;;;12.37;10.70;;;17.10;99.90;;;;;;5075616;28;20429;-75
2022/09/11 11:20:16;;;;;;;10.90;9.37;;;17.00;99.90;;;;;;5075877;28;20420;-76
2022/09/11 11:23:11;;;;;;;12.57;10.80;;;17.00;99.90;;;;;;5075569;28;20436;-74
2022/09/11 11:25:46;;;;;;;11.57;9.30;;;17.00;99.90;;;;;;5075291;28;20559;-75
2022/09/11 11:28:27;;;;;;;17.03;13.40;;;17.00;99.90;;;;;;5075484;28;20871;-75
2022/09/11 11:31:03;;;;;;;14.63;10.30;;;17.00;99.90;;;;;;5075044;28;20994;-75
2022/09/11 11:33:49;;;;;;;12.13;10.57;;;17.20;99.90;;;;;;5075306;28;20438;-75
2022/09/11 11:36:25;;;;;;;12.53;10.53;;;17.10;99.90;;;;;;5075233;28;20478;-75
2022/09/11 11:38:59;;;;;;;14.87;13.00;;;17.10;99.90;;;;;;5075264;28;20436;-75
2022/09/11 11:41:30;;;;;;;12.93;11.57;;;17.10;99.90;;;;;;5075173;28;20516;-76
2022/09/11 11:44:01;;;;;;;13.47;12.07;;;17.30;99.90;;;;;;5075004;28;20799;-75
2022/09/11 11:46:36;;;;;;;11.30;10.07;;;17.40;99.90;;;;;;5074965;28;20461;-75
2022/09/11 11:49:10;;;;;;;9.70;8.70;;;17.50;99.90;;;;;;5075058;28;20523;-75
2022/09/11 11:51:47;;;;;;;15.17;9.87;;;17.70;99.90;;;;;;5074928;28;20835;-75
2022/09/11 11:54:19;;;;;;;12.87;11.50;;;17.90;99.90;;;;;;5074269;28;20555;-76
2022/09/11 11:56:49;;;;;;;15.20;12.40;;;18.10;99.90;;;;;;5076465;28;20766;-75
2022/09/11 11:59:24;;;;;;;9.90;8.40;;;18.30;99.90;;;;;;5075622;28;20448;-75
2022/09/11 12:02:01;;;;;;;10.97;9.43;;;18.40;99.90;;;;;;5075034;28;20790;-75
2022/09/11 12:04:39;;;;;;;14.33;12.60;;;18.30;99.90;;;;;;5074911;28;20472;-76
2022/09/11 12:07:16;;;;;;;11.17;9.37;;;18.30;99.90;;;;;;5074509;28;20794;-76
2022/09/11 12:09:48;;;;;;;11.20;8.30;;;18.30;99.90;;;;;;5074637;28;20448;-75
2022/09/11 12:12:16;;;;;;;8.13;7.40;;;18.30;99.90;;;;;;5075020;28;20432;-75
2022/09/11 12:14:49;;;;;;;10.20;9.17;;;18.30;99.90;;;;;;5075050;28;20473;-75
2022/09/11 12:17:19;;;;;;;7.63;6.83;;;18.40;99.90;;;;;;5075469;28;20432;-76
2022/09/11 12:20:23;;;;;;;7.70;6.53;;;18.60;99.90;;;;;;5075050;28;20458;-76
2022/09/11 12:22:50;;;;;;;8.60;7.33;;;18.70;99.90;;;;;;5074256;28;20448;-76
2022/09/11 12:26:03;;;;;;;8.50;7.00;;;18.80;99.90;;;;;;5074234;28;20480;-75
2022/09/11 12:28:30;;;;;;;8.30;6.90;;;18.80;99.90;;;;;;5012216;28;20448;-76
2022/09/11 12:31:04;;;;;;;10.37;9.33;;;18.80;99.90;;;;;;5012012;28;20493;-76
2022/09/11 12:33:54;;;;;;;9.13;7.53;;;18.80;99.90;;;;;;5048375;28;20440;-76
2022/09/11 12:36:25;;;;;;;7.97;7.30;;;18.70;99.90;;;;;;5073956;28;20425;-76
2022/09/11 12:38:55;;;;;;;7.23;6.53;;;18.70;99.90;;;;;;5073833;28;20836;-75
2022/09/11 12:41:26;;;;;;;8.30;7.30;;;18.60;99.90;;;;;;5075512;28;20934;-76
2022/09/11 12:43:54;;;;;;;7.47;6.40;;;18.60;99.90;;;;;;5073304;28;20895;-76
2022/09/11 12:47:13;;;;;;;7.37;6.67;;;18.40;99.90;;;;;;5073752;28;20826;-76
2022/09/11 12:49:50;;;;;;;7.60;6.70;;;18.50;99.90;;;;;;5069966;28;20453;-75